Castlegar/West Kootenay Regional Airport
CYCG : now visible

Airfield :











YOU CAN JOIN US ON...

 
LOGIN :

Register | Disclaimer

   EN    FR    IT 

 









Legend :    VFR   Marginal VFR   IFR   Intensive IFR   Very Intensive IFR
Visi :
Ceiling :
>= 8 km
>= 3000ft
5 to 8 km
1000 to 3000 ft
1500m to 5 km
500 to 1000 ft
800 to 1500m
200 to 500 ft
< 800m
< 200 ft
Symbols :   Thunderstorms  Fog  Heavy snow  Heavy precipitations  Wind > 20 kt







- Airport Elevation : 1624 ft
- IATA code : YCG


CYCG - Castlegar/West Kootenay Regional

CURRENT METAR :
  • 260300Z 35008KT 15SM FEW095 FEW250 20/06 A3004 RMK AC1CI1 SLP173 DENSITY ALT 2500FT

EXPIRED METARs :
  • 260200Z 35008KT 15SM FEW090 22/05 A3002 RMK AC1 SLP166 DENSITY ALT 2700FT
  • 260100Z 30011G21KT 15SM FEW097 24/05 A3001 RMK AC2 SLP161 DENSITY ALT 3000FT

TAF TAF CYCG
Valid from the 26 at 01:00 until the 26 at 04:00 UTC


260038Z 2601/2604 32010KT P6SM SCT100 SCT140 RMK NXT FCST WILL BE ISSUED AT 261445Z
No reported NOTAMs for that airfield.



MET'MAP, your aeronautical weather chart ! - Copyright ORBIFLY December 2007 - Disclaimer

ORBIFLY MET'MAP TEAM :

Programming & Development : Alexandra Zaïnal
Concept & Development : Baudouin d'Aumeries
Co-Development & Prog : Marc-Olivier Méhu
Technical & hardware support : Manuel Goepfert

Contact : metmap@orbifly.com




SOURCES & CREDITS :

   NOAA       Earth
Advisory